createdAt,value
2022-10-21T00:01:00.069Z,14.90
2022-10-21T00:03:28.453Z,14.90
2022-10-21T00:05:58.020Z,14.90
2022-10-21T00:08:26.358Z,14.90
2022-10-21T00:10:55.874Z,14.90
2022-10-21T00:13:24.679Z,14.90
2022-10-21T00:16:00.398Z,14.90
2022-10-21T00:18:29.252Z,14.80
2022-10-21T00:20:58.755Z,14.90
2022-10-21T00:23:27.174Z,14.90
2022-10-21T00:25:57.854Z,14.90
2022-10-21T00:28:26.079Z,14.90
2022-10-21T00:30:54.307Z,14.90
2022-10-21T00:33:22.387Z,14.90
2022-10-21T00:35:54.277Z,14.90
2022-10-21T00:38:23.773Z,14.90
2022-10-21T00:40:52.109Z,14.90
2022-10-21T00:43:20.125Z,14.80
2022-10-21T00:45:49.635Z,14.80
2022-10-21T00:48:25.953Z,14.80
2022-10-21T00:50:57.966Z,14.90
2022-10-21T00:53:27.881Z,14.90
2022-10-21T00:56:00.167Z,14.90
2022-10-21T00:58:32.528Z,14.90
2022-10-21T01:01:02.659Z,14.90
2022-10-21T01:03:32.471Z,14.90
2022-10-21T01:06:03.024Z,14.90
2022-10-21T01:08:32.484Z,14.90
2022-10-21T01:11:02.999Z,14.90
2022-10-21T01:13:40.832Z,14.90
2022-10-21T01:16:15.012Z,14.90
2022-10-21T01:18:50.309Z,14.90
2022-10-21T01:21:30.330Z,14.90
2022-10-21T01:24:30.695Z,14.90
2022-10-21T01:27:20.787Z,14.90
2022-10-21T01:30:12.191Z,14.90
2022-10-21T01:32:57.639Z,14.90
2022-10-21T01:35:29.573Z,14.90
2022-10-21T01:38:08.268Z,14.90
2022-10-21T01:40:43.450Z,14.90
2022-10-21T01:43:18.580Z,14.90
2022-10-21T01:45:53.293Z,14.90
2022-10-21T01:48:25.449Z,14.90
2022-10-21T01:50:57.359Z,14.90
2022-10-21T01:53:29.874Z,15.00
2022-10-21T01:55:59.889Z,14.90
2022-10-21T01:58:32.275Z,14.90
2022-10-21T02:01:02.242Z,14.90
2022-10-21T02:03:35.720Z,14.90
2022-10-21T02:06:03.877Z,15.00
2022-10-21T02:08:32.001Z,14.90
2022-10-21T02:11:03.353Z,15.00
2022-10-21T02:13:34.632Z,15.00
2022-10-21T02:16:06.371Z,15.00
2022-10-21T02:18:35.954Z,14.90
2022-10-21T02:21:08.690Z,15.00
2022-10-21T02:23:49.697Z,14.90
2022-10-21T02:26:18.160Z,15.00
2022-10-21T02:28:46.488Z,15.00
2022-10-21T02:31:35.753Z,15.00
2022-10-21T02:34:15.808Z,14.90
2022-10-21T02:36:50.868Z,14.90
2022-10-21T02:39:24.773Z,14.90
2022-10-21T02:41:55.483Z,14.90
2022-10-21T02:44:24.082Z,14.90
2022-10-21T02:46:53.352Z,14.90
2022-10-21T02:49:22.713Z,14.90
2022-10-21T02:51:50.900Z,14.90
2022-10-21T02:54:18.932Z,14.90
2022-10-21T02:56:46.926Z,14.90
2022-10-21T02:59:14.977Z,14.90
2022-10-21T03:01:43.005Z,14.90
2022-10-21T03:04:10.988Z,15.00
2022-10-21T03:06:43.115Z,15.00
2022-10-21T03:09:11.144Z,15.00
2022-10-21T03:11:39.193Z,15.00
2022-10-21T03:14:07.259Z,15.00
2022-10-21T03:16:35.595Z,15.00
2022-10-21T03:19:03.901Z,15.00
2022-10-21T03:21:31.894Z,15.00
2022-10-21T03:24:01.205Z,15.00
2022-10-21T03:26:29.194Z,15.00
2022-10-21T03:28:57.185Z,15.00
2022-10-21T03:31:25.174Z,15.00
2022-10-21T03:33:53.192Z,15.00
2022-10-21T03:36:21.570Z,15.10
2022-10-21T03:38:49.679Z,15.10
2022-10-21T03:41:19.027Z,15.10
2022-10-21T03:43:47.035Z,15.10
2022-10-21T03:46:15.065Z,15.10
2022-10-21T03:48:43.028Z,15.10
2022-10-21T03:51:11.015Z,15.20
2022-10-21T03:53:43.372Z,15.10
2022-10-21T03:56:12.311Z,15.20
2022-10-21T03:58:42.509Z,15.20
2022-10-21T04:01:13.814Z,15.20
2022-10-21T04:03:42.241Z,15.20
2022-10-21T04:06:10.377Z,15.20
2022-10-21T04:08:38.446Z,15.20
2022-10-21T04:11:06.659Z,15.20
2022-10-21T04:13:34.845Z,15.20
2022-10-21T04:16:06.497Z,15.20
2022-10-21T04:18:34.807Z,15.20
2022-10-21T04:21:02.833Z,15.20
2022-10-21T04:23:30.803Z,15.30
2022-10-21T04:25:58.874Z,15.30
2022-10-21T04:28:26.941Z,15.30
2022-10-21T04:30:54.936Z,15.30
2022-10-21T04:33:24.369Z,15.30
2022-10-21T04:35:54.196Z,15.30
2022-10-21T04:38:22.696Z,15.30
2022-10-21T04:40:56.969Z,15.30
2022-10-21T04:43:25.109Z,15.30
2022-10-21T04:45:53.736Z,15.20
2022-10-21T04:48:21.788Z,15.30
2022-10-21T04:50:51.923Z,15.20
2022-10-21T04:53:20.123Z,15.30
2022-10-21T05:10:09.050Z,14.70
2022-10-21T05:12:58.072Z,15.30
2022-10-21T05:15:46.381Z,15.30
2022-10-21T05:18:34.759Z,15.30
2022-10-21T05:21:23.096Z,15.30
2022-10-21T05:24:11.438Z,15.30
2022-10-21T05:27:01.258Z,15.30
2022-10-21T05:29:49.652Z,15.30
2022-10-21T05:32:38.369Z,15.30
2022-10-21T05:35:27.018Z,15.30
2022-10-21T05:38:15.368Z,15.30
2022-10-21T05:41:04.051Z,15.40
2022-10-21T05:43:53.760Z,15.40
2022-10-21T05:46:42.131Z,15.40
2022-10-21T05:49:30.489Z,15.40
2022-10-21T05:52:18.823Z,15.40
2022-10-21T05:55:08.830Z,15.30
2022-10-21T05:57:59.332Z,15.40
2022-10-21T06:00:49.770Z,15.40
2022-10-21T06:03:38.314Z,15.40
2022-10-21T06:06:26.704Z,15.40
2022-10-21T06:09:15.061Z,15.40
2022-10-21T06:12:03.420Z,15.40
2022-10-21T06:14:51.842Z,15.40
2022-10-21T06:17:41.736Z,15.40
2022-10-21T06:20:30.165Z,15.40
2022-10-21T06:23:18.512Z,15.40
2022-10-21T06:26:09.644Z,15.40
2022-10-21T06:28:59.036Z,15.40
2022-10-21T06:31:47.475Z,15.40
2022-10-21T06:34:37.147Z,15.40
2022-10-21T06:37:25.779Z,15.40
2022-10-21T06:40:14.122Z,15.40
2022-10-21T06:43:03.661Z,15.30
2022-10-21T06:45:51.966Z,15.30
2022-10-21T06:48:40.763Z,15.40
2022-10-21T06:51:30.464Z,15.40
2022-10-21T06:54:18.786Z,15.30
2022-10-21T06:57:07.151Z,15.30
2022-10-21T06:59:55.509Z,15.30
2022-10-21T07:02:43.829Z,15.40
2022-10-21T07:05:32.167Z,15.30
2022-10-21T07:08:22.492Z,15.30
2022-10-21T07:11:23.138Z,15.30
2022-10-21T07:14:12.675Z,15.30
2022-10-21T07:17:01.137Z,15.30
2022-10-21T07:19:49.550Z,15.40
2022-10-21T07:22:37.896Z,15.30
2022-10-21T07:25:27.792Z,15.30
2022-10-21T07:28:16.095Z,15.30
2022-10-21T07:31:06.234Z,15.30
2022-10-21T07:33:55.142Z,15.30
2022-10-21T07:36:47.947Z,15.30
2022-10-21T07:39:36.449Z,15.30
2022-10-21T07:42:26.161Z,15.30
2022-10-21T07:44:59.301Z,15.40
2022-10-21T07:47:27.512Z,15.30
2022-10-21T07:49:55.589Z,15.40
2022-10-21T07:52:23.624Z,15.40
2022-10-21T07:54:51.890Z,15.40
2022-10-21T07:57:19.933Z,15.40
2022-10-21T07:59:49.279Z,15.40
2022-10-21T08:02:17.400Z,15.40
2022-10-21T08:04:45.440Z,15.30
2022-10-21T08:07:14.039Z,15.30
2022-10-21T08:09:42.159Z,15.30
2022-10-21T08:12:12.973Z,15.40
2022-10-21T08:14:43.303Z,15.40
2022-10-21T08:17:12.659Z,15.30
2022-10-21T08:19:40.747Z,15.30
2022-10-21T08:22:08.743Z,15.30
2022-10-21T08:24:39.919Z,15.40
2022-10-21T08:27:10.319Z,15.40
2022-10-21T08:29:40.022Z,15.40
2022-10-21T08:32:08.322Z,15.40
2022-10-21T08:34:38.264Z,15.40
2022-10-21T08:37:06.326Z,15.40
2022-10-21T08:39:34.360Z,15.40
2022-10-21T08:42:08.688Z,15.40
2022-10-21T08:44:42.522Z,15.40
2022-10-21T08:47:17.967Z,15.40
2022-10-21T08:50:12.989Z,15.40
2022-10-21T08:52:44.798Z,15.40
2022-10-21T08:55:19.719Z,15.40
2022-10-21T08:57:48.871Z,15.40
2022-10-21T09:00:19.628Z,15.50
2022-10-21T09:03:01.918Z,15.50
2022-10-21T09:05:38.425Z,15.50
2022-10-21T09:08:17.707Z,15.50
2022-10-21T09:10:57.353Z,15.50
2022-10-21T09:13:56.932Z,15.50
2022-10-21T09:16:33.549Z,15.50
2022-10-21T09:19:13.012Z,15.50
2022-10-21T09:22:10.837Z,15.50
2022-10-21T09:24:53.209Z,15.50
2022-10-21T09:27:32.093Z,15.50
2022-10-21T09:30:17.246Z,15.50
2022-10-21T09:32:49.843Z,15.60
2022-10-21T09:35:24.920Z,15.50
2022-10-21T09:37:57.465Z,15.50
2022-10-21T09:40:28.374Z,15.50
2022-10-21T09:42:59.050Z,15.50
2022-10-21T09:45:33.931Z,15.50
2022-10-21T09:48:04.525Z,15.50
2022-10-21T09:50:35.363Z,15.50
2022-10-21T09:53:10.110Z,15.50
2022-10-21T09:55:40.969Z,15.50
2022-10-21T09:58:09.331Z,15.50
2022-10-21T10:00:44.279Z,15.60
2022-10-21T10:03:12.430Z,15.60
2022-10-21T10:05:46.776Z,15.60
2022-10-21T10:08:34.031Z,15.60
2022-10-21T10:11:13.848Z,15.60
2022-10-21T10:13:44.648Z,15.60
2022-10-21T10:16:22.208Z,15.60
2022-10-21T10:18:52.314Z,15.60
2022-10-21T10:21:21.881Z,15.60
2022-10-21T10:23:52.892Z,15.60
2022-10-21T10:26:31.200Z,15.60
2022-10-21T10:29:03.683Z,15.70
2022-10-21T10:31:34.912Z,15.70
2022-10-21T10:34:06.672Z,15.70
2022-10-21T10:36:37.919Z,15.70
2022-10-21T10:39:09.992Z,15.70
2022-10-21T10:41:40.583Z,15.70
2022-10-21T10:44:19.703Z,15.70
2022-10-21T10:46:55.389Z,15.70
2022-10-21T10:49:24.308Z,15.70
2022-10-21T10:52:16.870Z,15.80
2022-10-21T10:54:46.302Z,15.70
2022-10-21T10:57:16.645Z,15.70
2022-10-21T10:59:48.101Z,15.80
2022-10-21T11:02:35.466Z,15.80
2022-10-21T11:05:20.229Z,15.80
2022-10-21T11:07:51.382Z,15.80
2022-10-21T11:10:33.947Z,15.80
2022-10-21T11:13:04.403Z,15.80
2022-10-21T11:15:45.947Z,15.80
2022-10-21T11:18:25.228Z,15.80
2022-10-21T11:21:06.145Z,15.80
2022-10-21T11:23:57.994Z,15.80
2022-10-21T11:26:37.514Z,15.80
2022-10-21T11:29:19.856Z,15.80
2022-10-21T11:32:14.235Z,15.80
2022-10-21T11:34:54.250Z,15.80
2022-10-21T11:37:32.341Z,15.80
2022-10-21T11:40:08.765Z,15.80
2022-10-21T11:42:43.247Z,15.80
2022-10-21T11:45:30.605Z,15.90
2022-10-21T11:48:08.173Z,15.80
2022-10-21T11:50:44.365Z,15.90
2022-10-21T11:53:27.711Z,15.90
2022-10-21T11:56:03.823Z,15.90
2022-10-21T11:58:54.608Z,15.90
2022-10-21T12:01:32.809Z,15.90
2022-10-21T12:04:24.366Z,16.00
2022-10-21T12:07:07.768Z,16.00
2022-10-21T12:09:42.281Z,16.00
2022-10-21T12:12:14.063Z,16.00
2022-10-21T12:14:47.958Z,16.10
2022-10-21T12:17:20.209Z,16.10
2022-10-21T12:19:55.697Z,16.10
2022-10-21T12:22:26.470Z,16.10
2022-10-21T12:25:01.830Z,16.10
2022-10-21T12:27:36.368Z,16.20
2022-10-21T12:30:13.835Z,16.20
2022-10-21T12:32:50.175Z,16.20
2022-10-21T12:38:27.241Z,16.20
2022-10-21T12:41:34.444Z,16.30
2022-10-21T12:44:22.358Z,16.30
2022-10-21T12:46:54.674Z,16.30
2022-10-21T12:49:26.545Z,16.30
2022-10-21T12:51:59.528Z,16.30
2022-10-21T12:54:30.773Z,16.30
2022-10-21T12:57:04.466Z,16.30
2022-10-21T12:59:36.144Z,16.30
2022-10-21T13:02:24.638Z,16.30
2022-10-21T13:04:59.987Z,16.30
2022-10-21T13:07:31.255Z,16.30
2022-10-21T13:10:28.177Z,16.30
2022-10-21T13:13:42.059Z,16.20
2022-10-21T13:16:29.715Z,16.20
2022-10-21T13:19:03.756Z,16.30
2022-10-21T13:21:36.350Z,16.20
2022-10-21T13:24:20.728Z,16.30
2022-10-21T13:26:51.765Z,16.30
2022-10-21T13:29:33.432Z,16.30
2022-10-21T13:32:31.027Z,16.30
2022-10-21T13:35:26.384Z,16.30
2022-10-21T13:38:03.457Z,16.30
2022-10-21T13:40:46.021Z,16.30
2022-10-21T13:43:17.685Z,16.30
2022-10-21T13:45:49.821Z,16.30
2022-10-21T13:48:20.087Z,16.30
2022-10-21T13:50:50.232Z,16.30
2022-10-21T13:53:25.355Z,16.30
2022-10-21T13:55:58.906Z,16.30
2022-10-21T13:58:28.833Z,16.30
2022-10-21T14:00:58.999Z,16.30
2022-10-21T14:03:28.260Z,16.30
2022-10-21T14:05:59.783Z,16.30
2022-10-21T14:08:33.122Z,16.30
2022-10-21T14:11:03.611Z,16.30
2022-10-21T14:13:36.474Z,16.30
2022-10-21T14:16:05.318Z,16.30
2022-10-21T14:18:37.146Z,16.30
2022-10-21T14:21:06.636Z,16.30
2022-10-21T14:23:36.254Z,16.40
2022-10-21T14:26:07.585Z,16.30
2022-10-21T14:28:36.891Z,16.30
2022-10-21T14:33:44.932Z,16.30
2022-10-21T14:36:16.039Z,16.40
2022-10-21T14:38:54.162Z,16.40
2022-10-21T14:41:26.062Z,16.40
2022-10-21T14:43:55.659Z,16.30
2022-10-21T14:46:23.891Z,16.40
2022-10-21T14:48:55.409Z,16.30
2022-10-21T14:51:24.025Z,16.40
2022-10-21T14:53:56.569Z,16.40
2022-10-21T14:56:30.908Z,16.40
2022-10-21T14:59:01.100Z,16.40
2022-10-21T15:01:29.222Z,16.40
2022-10-21T15:03:58.685Z,16.40
2022-10-21T15:06:30.289Z,16.40
2022-10-21T15:09:17.984Z,16.30
2022-10-21T15:11:48.751Z,16.40
2022-10-21T15:14:28.982Z,16.40
2022-10-21T15:17:01.755Z,16.40
2022-10-21T15:19:45.528Z,16.30
2022-10-21T15:22:24.358Z,16.40
2022-10-21T15:24:56.097Z,16.40
2022-10-21T15:27:29.019Z,16.30
2022-10-21T15:29:57.170Z,16.40
2022-10-21T15:32:29.606Z,16.40
2022-10-21T15:34:59.474Z,16.40
2022-10-21T15:37:27.462Z,16.40
2022-10-21T15:39:57.079Z,16.40
2022-10-21T15:42:25.083Z,16.40
2022-10-21T15:44:53.099Z,16.40
2022-10-21T15:47:21.088Z,16.40
2022-10-21T15:49:49.334Z,16.40
2022-10-21T15:52:18.387Z,16.40
2022-10-21T15:54:46.384Z,16.40
2022-10-21T15:57:19.477Z,16.40
2022-10-21T15:59:48.831Z,16.40
2022-10-21T16:02:18.461Z,16.40
2022-10-21T16:04:46.890Z,16.40
2022-10-21T16:07:21.241Z,16.40
2022-10-21T16:09:49.584Z,16.40
2022-10-21T16:12:21.712Z,16.40
2022-10-21T16:14:49.754Z,16.40
2022-10-21T16:17:18.013Z,16.40
2022-10-21T16:19:46.127Z,16.40
2022-10-21T16:22:16.967Z,16.40
2022-10-21T16:24:45.150Z,16.40
2022-10-21T16:27:17.646Z,16.40
2022-10-21T16:29:55.760Z,16.40
2022-10-21T16:32:25.189Z,16.40
2022-10-21T16:34:53.478Z,16.40
2022-10-21T16:37:25.753Z,16.40
2022-10-21T16:39:53.937Z,16.40
2022-10-21T16:42:22.027Z,16.40
2022-10-21T16:44:51.030Z,16.40
2022-10-21T16:47:22.507Z,16.40
2022-10-21T16:49:50.622Z,16.40
2022-10-21T16:52:18.644Z,16.40
2022-10-21T16:54:48.883Z,16.40
2022-10-21T16:57:17.123Z,16.40
2022-10-21T16:59:45.236Z,16.40
2022-10-21T17:02:17.000Z,16.40
2022-10-21T17:04:47.063Z,16.40
2022-10-21T17:07:15.362Z,16.40
2022-10-21T17:09:43.334Z,16.40
2022-10-21T17:12:12.070Z,16.40
2022-10-21T17:14:40.747Z,16.40
2022-10-21T17:17:08.738Z,16.40
2022-10-21T17:19:36.818Z,16.40
2022-10-21T17:22:06.200Z,16.40
2022-10-21T17:24:34.204Z,16.40
2022-10-21T17:27:02.345Z,16.40
2022-10-21T17:29:30.364Z,16.40
2022-10-21T17:31:58.401Z,16.40
2022-10-21T17:34:29.155Z,16.40
2022-10-21T17:36:57.519Z,16.40
2022-10-21T17:39:27.870Z,16.40
2022-10-21T17:41:55.925Z,16.40
2022-10-21T17:44:24.051Z,16.40
2022-10-21T17:46:54.552Z,16.40
2022-10-21T17:49:23.246Z,16.40
2022-10-21T17:51:51.688Z,16.40
2022-10-21T17:54:22.947Z,16.40
2022-10-21T17:56:56.617Z,16.40
2022-10-21T17:59:24.642Z,16.40
2022-10-21T18:01:52.617Z,16.40
2022-10-21T18:04:20.683Z,16.40
2022-10-21T18:06:48.750Z,16.40
2022-10-21T18:09:17.008Z,16.40
2022-10-21T18:11:45.193Z,16.40
2022-10-21T18:14:15.127Z,16.40
2022-10-21T18:16:43.280Z,16.40
2022-10-21T18:19:12.038Z,16.40
2022-10-21T18:21:40.157Z,16.40
2022-10-21T18:24:12.176Z,16.40
2022-10-21T18:26:40.697Z,16.40
2022-10-21T18:29:08.806Z,16.40
2022-10-21T18:31:38.720Z,16.40
2022-10-21T18:34:09.110Z,16.40
2022-10-21T18:36:37.135Z,16.30
2022-10-21T18:39:06.319Z,16.40
2022-10-21T18:41:34.387Z,16.40
2022-10-21T18:44:07.962Z,16.40
2022-10-21T18:46:39.195Z,16.40
2022-10-21T18:49:09.319Z,16.40
2022-10-21T18:51:37.352Z,16.40
2022-10-21T18:54:05.613Z,16.30
2022-10-21T18:56:33.726Z,16.40
2022-10-21T18:59:01.741Z,16.30
2022-10-21T19:01:29.963Z,16.30
2022-10-21T19:03:59.664Z,16.30
2022-10-21T19:06:47.086Z,16.30
2022-10-21T19:09:17.747Z,16.30
2022-10-21T19:11:46.619Z,16.30
2022-10-21T19:14:15.530Z,16.30
2022-10-21T19:16:44.461Z,16.30
2022-10-21T19:19:14.557Z,16.30
2022-10-21T19:21:42.890Z,16.30
2022-10-21T19:24:11.690Z,16.30
2022-10-21T19:26:41.136Z,16.30
2022-10-21T19:29:13.401Z,16.30
2022-10-21T19:31:41.758Z,16.30
2022-10-21T19:34:13.939Z,16.30
2022-10-21T19:36:42.242Z,16.30
2022-10-21T19:39:10.353Z,16.30
2022-10-21T19:41:38.467Z,16.30
2022-10-21T19:44:06.662Z,16.30
2022-10-21T19:46:36.034Z,16.30
2022-10-21T19:49:05.312Z,16.30
2022-10-21T19:51:34.795Z,16.30
2022-10-21T19:54:04.487Z,16.30
2022-10-21T19:56:34.389Z,16.30
2022-10-21T19:59:03.423Z,16.30
2022-10-21T20:01:33.510Z,16.30
2022-10-21T20:04:04.647Z,16.30
2022-10-21T20:06:38.376Z,16.30
2022-10-21T20:09:12.923Z,16.20
2022-10-21T20:11:43.714Z,16.20
2022-10-21T20:14:14.730Z,16.20
2022-10-21T20:16:44.671Z,16.20
2022-10-21T20:19:13.445Z,16.20
2022-10-21T20:21:43.439Z,16.20
2022-10-21T20:24:13.698Z,16.20
2022-10-21T20:26:42.648Z,16.20
2022-10-21T20:29:11.179Z,16.20
2022-10-21T20:31:39.159Z,16.20
2022-10-21T20:34:07.155Z,16.20
2022-10-21T20:36:35.251Z,16.20
2022-10-21T20:39:05.274Z,16.10
2022-10-21T20:41:37.059Z,16.20
2022-10-21T20:44:07.766Z,16.10
2022-10-21T20:46:36.199Z,16.10
2022-10-21T20:49:05.242Z,16.10
2022-10-21T20:51:33.385Z,16.10
2022-10-21T20:54:04.743Z,16.10
2022-10-21T20:56:34.701Z,16.10
2022-10-21T20:59:03.615Z,16.10
2022-10-21T21:01:33.484Z,16.10
2022-10-21T21:04:04.709Z,16.10
2022-10-21T21:06:38.070Z,16.10
2022-10-21T21:09:33.098Z,16.10
2022-10-21T21:11:55.847Z,16.10
2022-10-21T21:14:23.987Z,16.10
2022-10-21T21:16:52.017Z,16.10
2022-10-21T21:19:20.685Z,16.10
2022-10-21T21:21:49.648Z,16.20
2022-10-21T21:24:19.027Z,16.20
2022-10-21T21:26:47.399Z,16.20
2022-10-21T21:29:15.750Z,16.20
2022-10-21T21:31:44.134Z,16.20
2022-10-21T21:34:12.664Z,16.10
2022-10-21T21:36:40.919Z,16.10
2022-10-21T21:39:09.509Z,16.10
2022-10-21T21:41:39.011Z,16.10
2022-10-21T21:44:07.244Z,16.10
2022-10-21T21:46:35.269Z,16.10
2022-10-21T21:49:06.268Z,16.10
2022-10-21T21:51:36.815Z,16.10
2022-10-21T21:54:07.625Z,16.10
2022-10-21T21:56:35.804Z,16.10
2022-10-21T21:59:05.759Z,16.10
2022-10-21T22:01:33.857Z,16.00
2022-10-21T22:04:01.979Z,16.00
2022-10-21T22:06:32.346Z,16.00
2022-10-21T22:09:01.027Z,16.00
2022-10-21T22:11:31.986Z,16.00
2022-10-21T22:14:00.515Z,16.00
2022-10-21T22:16:30.895Z,16.00
2022-10-21T22:19:00.815Z,16.00
2022-10-21T22:21:29.928Z,16.00
2022-10-21T22:23:58.132Z,16.00
2022-10-21T22:26:27.492Z,16.00
2022-10-21T22:28:55.511Z,16.00
2022-10-21T22:31:29.141Z,16.00
2022-10-21T22:34:01.136Z,16.00
2022-10-21T22:36:29.256Z,16.00
2022-10-21T22:38:57.344Z,16.00
2022-10-21T22:41:25.370Z,16.00
2022-10-21T22:43:53.923Z,16.00
2022-10-21T22:46:33.545Z,16.00
2022-10-21T22:49:04.730Z,16.00
2022-10-21T22:51:33.274Z,16.00
2022-10-21T22:54:01.598Z,16.00
2022-10-21T22:56:30.037Z,16.00
2022-10-21T22:58:58.210Z,16.00
2022-10-21T23:01:29.992Z,15.90
2022-10-21T23:03:58.268Z,16.00
2022-10-21T23:06:27.600Z,16.00
2022-10-21T23:08:55.759Z,16.00
2022-10-21T23:11:23.875Z,16.00
2022-10-21T23:14:02.502Z,16.00
2022-10-21T23:16:32.049Z,16.00
2022-10-21T23:19:00.346Z,16.00
2022-10-21T23:21:30.245Z,16.10
2022-10-21T23:23:58.369Z,16.00
2022-10-21T23:26:26.526Z,16.10
2022-10-21T23:28:54.643Z,16.10
2022-10-21T23:31:22.725Z,16.10
2022-10-21T23:33:50.756Z,16.10
2022-10-21T23:36:18.991Z,16.10
2022-10-21T23:38:48.707Z,16.10
2022-10-21T23:41:16.749Z,16.10
2022-10-21T23:43:45.112Z,16.10
2022-10-21T23:46:13.198Z,16.10
2022-10-21T23:48:41.336Z,16.10
2022-10-21T23:51:09.364Z,16.10
2022-10-21T23:53:37.527Z,16.00
2022-10-21T23:56:07.772Z,16.10
2022-10-21T23:58:35.864Z,16.10
